SNDZ weather

CLOSED Via Brasil Heliport
Belo Horizonte, Minas Gerais, Brazil

Public forecast

Using degrees Celsius for public forecast. Weather courtesy of forecast.io.

METAR (pilot weather report)

Closest report is Pampulha - Carlos Drummond de Andrade Airport, 1.0 nm (1.9 km) ESE. Retrieved 2019/07/16 07:00 UTC (41 minutes ago):

SBBH 160700Z 00000KT CAVOK 12/10 Q1016

TAF (pilot weather forecast)

Forecast is more than 12 hours old.

Closest forecast is Pampulha - Carlos Drummond de Andrade Airport, 1.0 nm (1.9 km) ESE. Retrieved 2012/03/26 18:12 UTC (7 years ago):

TAF SBBH 261639Z 2618/2706 09005KT 9999 SCT030 TX28/2618Z TN20/2705Z PROB30 2619/2624 8000 TSRA BKN035 FEW045CB RMK PGG